Bookmark and Share
Track history (hours):
 

Os

Last reported at 2014-Apr-24 19:26 UTC. Time now 2014-Apr-24 19:45 UTC.
Position N 62°37' E 006°17'.

Length 64 m.

Type: Passenger vessel. MMSI: 257066700.

NotesDate/timePositionNaut miles runAvg speedWind from/ knotsBaromVisibWave heightAir tempDewpointWater temp
2014-Apr-24 19:26N 62°37' E 006°17'1 0.7
2014-Apr-24 18:04N 62°36' E 006°17'2 3.8
2014-Apr-24 17:33N 62°37' E 006°14'0 0.3
2014-Apr-24 16:33N 62°37' E 006°14'2 1.6
2014-Apr-24 15:19N 62°36' E 006°17'3 3.3
2014-Apr-24 14:33N 62°38' E 006°17'0 0.1
2014-Apr-24 13:29N 62°38' E 006°17'0 0.0
2014-Apr-24 12:27N 62°38' E 006°17'0 0.2
2014-Apr-24 11:29N 62°38' E 006°17'2 2.6
2014-Apr-24 10:33N 62°36' E 006°17'0 0.3
2014-Apr-24 09:32N 62°36' E 006°17'0 0.3
2014-Apr-24 08:33N 62°36' E 006°17'3 2.2
2014-Apr-24 07:21N 62°38' E 006°17'2 3.1
2014-Apr-24 06:33N 62°36' E 006°17'0 0.1
2014-Apr-24 04:32N 62°36' E 006°17'3 2.0
2014-Apr-24 03:13N 62°38' E 006°17'0 0.0
2014-Apr-24 00:33N 62°38' E 006°17'0 0.0
2014-Apr-23 23:30N 62°38' E 006°17'1 0.4
2014-Apr-23 21:24N 62°37' E 006°16'1 0.9
2014-Apr-23 20:29N 62°38' E 006°17'0 0.1
2014-Apr-23 19:34N 62°38' E 006°17'0 0.1
2014-Apr-23 18:32N 62°38' E 006°17'2 1.6
2014-Apr-23 17:33N 62°37' E 006°14'2 2.1
2014-Apr-23 16:33N 62°36' E 006°17'1 1.0
2014-Apr-23 15:22N 62°37' E 006°17'1 1.0
2014-Apr-23 14:16N 62°36' E 006°17'1 1.2
2014-Apr-23 13:13N 62°37' E 006°17'1 1.8
2014-Apr-23 12:31N 62°38' E 006°17'0 0.3
2014-Apr-23 11:30N 62°38' E 006°17'4 4.0
2014-Apr-23 10:27N 62°34' E 006°13'2 2.5
2014-Apr-23 09:30N 62°36' E 006°17'0 0.0
2014-Apr-23 08:33N 62°36' E 006°17'1 0.7
2014-Apr-23 07:33N 62°36' E 006°17'1 0.9
2014-Apr-23 06:09N 62°37' E 006°16'1 1.6
2014-Apr-23 05:15N 62°37' E 006°13'2 3.1
2014-Apr-23 04:33N 62°36' E 006°17'3 1.1
2014-Apr-23 02:07N 62°38' E 006°17'0 0.0
2014-Apr-23 00:33N 62°38' E 006°17'0 0.0
2014-Apr-22 22:32N 62°38' E 006°17'1 1.2
2014-Apr-22 21:20N 62°37' E 006°15'1 1.7
2014-Apr-22 20:30N 62°38' E 006°17'2 1.8
2014-Apr-22 19:26N 62°36' E 006°16'0 0.3
2014-Apr-22 18:17N 62°37' E 006°17'2 2.3
2014-Apr-22 17:33N 62°37' E 006°13'2 1.6
2014-Apr-22 16:08N 62°36' E 006°17'0 0.0
2014-Apr-22 15:14N 62°36' E 006°17'2 1.3
2014-Apr-22 13:34N 62°37' E 006°14'2 1.7
2014-Apr-22 12:28N 62°38' E 006°17'0 0.1
2014-Apr-22 11:27N 62°38' E 006°17'3 2.9
2014-Apr-22 10:31N 62°36' E 006°17'0 0.0
2014-Apr-22 09:34N 62°36' E 006°17'0 0.0
2014-Apr-22 08:33N 62°36' E 006°17'2 1.4
2014-Apr-22 07:11N 62°37' E 006°16'1 1.1
2014-Apr-22 06:23N 62°38' E 006°17'0 0.3
2014-Apr-22 05:07N 62°38' E 006°17'2 3.9
2014-Apr-22 04:33N 62°36' E 006°17'3 1.8
2014-Apr-22 03:05N 62°38' E 006°17'0 0.0
2014-Apr-21 22:27N 62°38' E 006°17'1 0.8
2014-Apr-21 21:24N 62°37' E 006°16'2 1.0
2014-Apr-21 19:33N 62°36' E 006°17'2 1.4
2014-Apr-21 18:11N 62°37' E 006°14'0 0.4
2014-Apr-21 17:18N 62°37' E 006°14'2 2.2
2014-Apr-21 16:33N 62°36' E 006°16'2 1.5
2014-Apr-21 15:22N 62°37' E 006°13'0 0.0
2014-Apr-21 14:21N 62°37' E 006°13'1 1.1
2014-Apr-21 13:27N 62°37' E 006°15'1 0.9
2014-Apr-21 12:21N 62°37' E 006°13'0 0.0
2014-Apr-21 11:22N 62°37' E 006°13'2 2.7
2014-Apr-21 10:33N 62°36' E 006°17'2 1.9
2014-Apr-21 09:23N 62°37' E 006°13'0 0.0
2014-Apr-21 08:19N 62°37' E 006°13'2 1.5
2014-Apr-21 07:05N 62°38' E 006°17'1 2.1
2014-Apr-21 06:24N 62°37' E 006°14'2 1.9
2014-Apr-21 05:31N 62°38' E 006°17'0 0.0
2014-Apr-21 04:30N 62°38' E 006°17'0 0.0
2014-Apr-21 03:33N 62°38' E 006°17'0 0.0
2014-Apr-21 02:32N 62°38' E 006°17'0 0.0
2014-Apr-21 01:30N 62°38' E 006°17'0 0.0
2014-Apr-21 00:12N 62°38' E 006°17'0 0.0
2014-Apr-20 23:19N 62°38' E 006°17'0 0.0
2014-Apr-20 22:31N 62°38' E 006°17'1 0.7
2014-Apr-20 21:24N 62°37' E 006°16'2 2.0
2014-Apr-20 20:33N 62°36' E 006°17'0 0.0
2014-Apr-20 19:33N 62°36' E 006°17'0 0.0
2014-Apr-20 18:33N 62°36' E 006°17'0 0.0
2014-Apr-20 16:33N 62°36' E 006°17'0 0.1
2014-Apr-20 15:33N 62°36' E 006°17'0 0.2
2014-Apr-20 14:33N 62°36' E 006°17'2 1.7
2014-Apr-20 13:17N 62°37' E 006°13'0 0.0
2014-Apr-20 12:18N 62°37' E 006°13'0 0.0
2014-Apr-20 11:18N 62°37' E 006°13'2 2.9
2014-Apr-20 10:33N 62°36' E 006°17'1 1.2
2014-Apr-20 09:29N 62°37' E 006°15'0 0.1
2014-Apr-20 08:27N 62°37' E 006°16'1 0.7
2014-Apr-20 07:16N 62°37' E 006°14'2 2.6
2014-Apr-20 06:33N 62°36' E 006°17'2 2.3
2014-Apr-20 05:29N 62°38' E 006°17'0 0.0
2014-Apr-20 01:27N 62°38' E 006°17'0 0.0
2014-Apr-20 00:05N 62°38' E 006°17'0 0.0
2014-Apr-19 22:31N 62°38' E 006°17'1 0.4
2014-Apr-19 20:31N 62°37' E 006°16'1 0.9
2014-Apr-19 19:33N 62°37' E 006°14'2 1.4
2014-Apr-19 18:30N 62°38' E 006°17'2 2.0
2014-Apr-19 17:33N 62°37' E 006°13'2 1.8
2014-Apr-19 16:22N 62°36' E 006°17'1 1.1
2014-Apr-19 15:22N 62°37' E 006°17'2 1.9
2014-Apr-19 14:33N 62°38' E 006°17'2 1.7
2014-Apr-19 13:32N 62°37' E 006°14'1 1.1
2014-Apr-19 12:31N 62°37' E 006°16'1 0.5
2014-Apr-19 11:30N 62°38' E 006°17'2 2.4
2014-Apr-19 10:33N 62°36' E 006°17'0 0.0
2014-Apr-19 09:33N 62°36' E 006°17'0 0.1
2014-Apr-19 08:31N 62°36' E 006°17'3 2.4
2014-Apr-19 07:28N 62°38' E 006°17'1 1.5
2014-Apr-19 06:29N 62°37' E 006°17'1 1.0
2014-Apr-19 05:33N 62°36' E 006°17'2 2.2
2014-Apr-19 04:27N 62°38' E 006°17'0 0.0
2014-Apr-19 03:29N 62°38' E 006°17'0 0.0
2014-Apr-19 02:32N 62°38' E 006°17'0 0.0
2014-Apr-19 01:32N 62°38' E 006°17'0 0.0
2014-Apr-19 00:30N 62°38' E 006°17'0 0.0
2014-Apr-18 23:30N 62°38' E 006°17'0 0.0
2014-Apr-18 22:33N 62°38' E 006°17'1 0.8
2014-Apr-18 21:24N 62°37' E 006°16'2 2.1
2014-Apr-18 20:33N 62°36' E 006°17'2 1.6
2014-Apr-18 19:16N 62°37' E 006°13'2 2.9
2014-Apr-18 18:33N 62°36' E 006°17'0 0.1
2014-Apr-18 17:33N 62°36' E 006°17'0 0.0
2014-Apr-18 16:33N 62°36' E 006°17'2 1.8
2014-Apr-18 15:20N 62°37' E 006°13'2 2.6
2014-Apr-18 14:33N 62°36' E 006°17'0 0.2
2014-Apr-18 13:31N 62°36' E 006°17'0 0.2
2014-Apr-18 12:32N 62°36' E 006°17'0 0.2
2014-Apr-18 11:33N 62°36' E 006°17'0 0.0
2014-Apr-18 10:33N 62°36' E 006°17'2 1.8
2014-Apr-18 09:17N 62°37' E 006°13'0 0.3
2014-Apr-18 08:15N 62°37' E 006°14'2 2.4
2014-Apr-18 07:33N 62°36' E 006°17'2 1.4
2014-Apr-18 06:23N 62°37' E 006°14'2 1.9
2014-Apr-18 05:26N 62°38' E 006°17'0 0.0
2014-Apr-18 04:28N 62°38' E 006°17'0 0.0
2014-Apr-18 03:13N 62°38' E 006°17'0 0.0
2014-Apr-18 01:22N 62°38' E 006°17'0 0.0
2014-Apr-17 23:04N 62°38' E 006°17'0 0.0
2014-Apr-17 22:26N 62°38' E 006°17'0 0.0
2014-Apr-17 21:33N 62°38' E 006°17'3 2.7
2014-Apr-17 20:33N 62°36' E 006°17'0 0.2
2014-Apr-17 19:33N 62°36' E 006°17'0 0.2
2014-Apr-17 18:33N 62°36' E 006°17'0 0.1
2014-Apr-17 17:33N 62°36' E 006°17'0 0.0
2014-Apr-17 16:33N 62°36' E 006°17'0 0.2
2014-Apr-17 15:33N 62°36' E 006°17'0 0.0
2014-Apr-17 14:33N 62°36' E 006°17'0 0.0
2014-Apr-17 12:33N 62°36' E 006°17'2 1.4
2014-Apr-17 11:25N 62°37' E 006°14'1 0.4
2014-Apr-17 09:08N 62°37' E 006°16'2 3.1
2014-Apr-17 08:33N 62°36' E 006°17'0 0.1
2014-Apr-17 07:33N 62°36' E 006°17'0 0.4
2014-Apr-17 06:32N 62°36' E 006°17'2 2.2
2014-Apr-17 05:31N 62°38' E 006°17'0 0.0
2014-Apr-17 04:26N 62°38' E 006°17'0 0.0
2014-Apr-17 03:29N 62°38' E 006°17'0 0.0
2014-Apr-17 01:33N 62°38' E 006°17'0 0.0
2014-Apr-16 23:32N 62°38' E 006°17'0 0.0
2014-Apr-16 22:29N 62°38' E 006°17'0 0.0
2014-Apr-16 21:27N 62°38' E 006°17'3 2.1
2014-Apr-16 20:09N 62°36' E 006°17'1 1.7
2014-Apr-16 19:27N 62°37' E 006°17'2 1.5
2014-Apr-16 18:28N 62°38' E 006°17'2 2.1
2014-Apr-16 17:32N 62°37' E 006°13'5 5.1
2014-Apr-16 16:33N 62°32' E 006°13'6 6.4
2014-Apr-16 15:33N 62°38' E 006°17'0 0.0
2014-Apr-16 14:33N 62°38' E 006°17'0 0.0
2014-Apr-16 13:25N 62°38' E 006°17'0 0.1
2014-Apr-16 12:33N 62°38' E 006°17'0 0.1
2014-Apr-16 11:33N 62°38' E 006°17'5 5.3
2014-Apr-16 10:32N 62°33' E 006°13'3 3.2
2014-Apr-16 09:34N 62°36' E 006°17'0 0.0
2014-Apr-16 08:32N 62°36' E 006°17'0 0.5
2014-Apr-16 07:33N 62°36' E 006°17'0 0.4
2014-Apr-16 06:32N 62°37' E 006°17'1 0.9
2014-Apr-16 05:33N 62°36' E 006°17'0 0.1
2014-Apr-16 04:33N 62°36' E 006°17'3 2.7
2014-Apr-16 03:33N 62°38' E 006°17'0 0.0
2014-Apr-16 02:32N 62°38' E 006°17'0 0.0
2014-Apr-16 01:32N 62°38' E 006°17'0 0.0
2014-Apr-16 00:32N 62°38' E 006°17'0 0.0
2014-Apr-15 23:31N 62°38' E 006°17'0 0.0
2014-Apr-15 22:30N 62°38' E 006°17'0 0.0
2014-Apr-15 21:32N 62°38' E 006°17'0 0.1
2014-Apr-15 20:29N 62°38' E 006°17'1 1.2
2014-Apr-15 19:27N 62°37' E 006°17'1 0.5
2014-Apr-15 18:18N 62°36' E 006°17'2 2.4
2014-Apr-15 17:33N 62°37' E 006°13'0 0.0
2014-Apr-15 16:33N 62°37' E 006°13'2 1.8
2014-Apr-15 15:28N 62°38' E 006°17'2 0.3
2014-Apr-15 08:31N 62°36' E 006°17'0 0.0
2014-Apr-15 07:34N 62°36' E 006°17'1 0.6
2014-Apr-15 06:33N 62°36' E 006°17'0 0.3
2014-Apr-15 05:34N 62°36' E 006°17'0 0.1
2014-Apr-15 03:34N 62°36' E 006°17'3 2.7
2014-Apr-15 02:34N 62°38' E 006°17'0 0.0
2014-Apr-15 01:31N 62°38' E 006°17'0 0.0
2014-Apr-15 00:33N 62°38' E 006°17'0 0.0
2014-Apr-14 22:34N 62°38' E 006°17'0 0.0
2014-Apr-14 21:31N 62°38' E 006°17'0 0.0
2014-Apr-14 20:34N 62°38' E 006°17'0 0.4
2014-Apr-14 19:33N 62°38' E 006°17'  

Dump ship's entire track history

sailing weather and tide predictions

Os — LHFA — position and weather